Time;durP1;ratioP1;P1;durP2;ratioP2;P2;SDS_P1;SDS_P2;PMS_P1;PMS_P2;Temp;Humidity;BMP_temperature;BMP_pressure;BME280_temperature;BME280_humidity;BME280_pressure;Samples;Min_cycle;Max_cycle;Signal;HPM_P1;HPM_P2
2022/03/12 00:01:33;;;;;;;15.05;8.68;;;;;;;-1.10;44.68;100706.41;1763313;80;21222;-65
2022/03/12 00:04:01;;;;;;;15.70;9.58;;;;;;;-1.13;44.79;100706.09;1752305;81;20920;-65
2022/03/12 00:06:29;;;;;;;15.15;7.95;;;;;;;-1.14;45.08;100700.47;1683026;85;21490;-64
2022/03/12 00:08:57;;;;;;;14.30;8.98;;;;;;;-1.14;45.08;100700.47;1743874;81;20936;-67
2022/03/12 00:11:27;;;;;;;19.35;10.72;;;;;;;-1.14;45.24;100710.05;1733565;81;20977;-65
2022/03/12 00:13:57;;;;;;;22.42;11.30;;;;;;;-1.15;45.25;100705.77;1734232;81;21482;-65
2022/03/12 00:16:25;;;;;;;18.73;10.40;;;;;;;-1.16;45.32;100702.75;1682544;85;20904;-66
2022/03/12 00:18:55;;;;;;;20.12;10.90;;;;;;;-1.13;45.31;100699.56;1707616;83;21019;-64
2022/03/12 00:21:35;;;;;;;17.73;10.38;;;;;;;-1.11;45.32;100700.78;1752557;81;21028;-64
2022/03/12 00:24:01;;;;;;;18.82;9.95;;;;;;;-1.10;45.37;100693.36;1741130;81;21422;-65
2022/03/12 00:26:29;;;;;;;19.77;10.65;;;;;;;-1.08;45.34;100689.76;1725455;81;21886;-64
2022/03/12 00:28:58;;;;;;;21.52;11.20;;;;;;;-1.09;45.38;100690.66;1731804;81;20882;-64
2022/03/12 00:31:25;;;;;;;17.52;10.85;;;;;;;-1.06;45.46;100690.98;1731390;81;20988;-63
2022/03/12 00:33:52;;;;;;;25.25;11.95;;;;;;;-1.04;45.46;100691.30;1734743;81;21102;-65
2022/03/12 00:36:20;;;;;;;35.30;15.50;;;;;;;-1.02;45.53;100687.34;1728607;81;20929;-64
2022/03/12 00:38:47;;;;;;;32.73;14.35;;;;;;;-1.02;45.71;100695.17;1755402;81;21242;-64
2022/03/12 00:41:14;;;;;;;35.08;16.37;;;;;;;-1.00;45.87;100684.19;1744407;81;20946;-65
2022/03/12 00:43:41;;;;;;;29.82;14.87;;;;;;;-0.99;45.94;100680.67;1743144;81;20982;-63
2022/03/12 00:46:08;;;;;;;27.52;13.10;;;;;;;-0.95;46.02;100678.30;1734227;81;20931;-66
2022/03/12 00:48:36;;;;;;;28.77;13.53;;;;;;;-0.91;45.74;100668.94;1732587;81;20941;-65
2022/03/12 00:51:03;;;;;;;33.25;15.13;;;;;;;-0.91;45.74;100668.94;1725467;81;21270;-65
2022/03/12 00:53:30;;;;;;;35.80;15.25;;;;;;;-0.88;45.58;100671.42;1734477;81;21061;-65
2022/03/12 00:55:58;;;;;;;24.40;12.20;;;;;;;-0.87;45.51;100673.12;1730695;81;20925;-64
2022/03/12 00:58:25;;;;;;;27.75;13.70;;;;;;;-0.84;45.41;100672.99;1730578;81;20993;-66
2022/03/12 01:00:52;;;;;;;27.50;13.62;;;;;;;-0.85;45.42;100668.67;1746403;81;21031;-66
2022/03/12 01:03:19;;;;;;;26.10;12.73;;;;;;;-0.85;45.42;100668.67;1755491;81;21126;-67
2022/03/12 01:05:55;;;;;;;27.75;13.90;;;;;;;-0.85;45.38;100667.81;1767312;81;20908;-63
2022/03/12 01:08:25;;;;;;;29.18;13.13;;;;;;;-0.85;45.23;100675.66;1767300;81;20970;-66
2022/03/12 01:10:57;;;;;;;25.08;12.95;;;;;;;-0.84;45.49;100678.67;1758433;81;20975;-65
2022/03/12 01:13:27;;;;;;;24.32;13.22;;;;;;;-0.85;45.86;100667.81;1750620;81;20935;-65
2022/03/12 01:15:54;;;;;;;18.60;10.98;;;;;;;-0.87;45.87;100665.73;1765333;80;21243;-65
2022/03/12 01:18:23;;;;;;;26.12;11.95;;;;;;;-0.86;46.08;100670.06;1763192;81;21576;-65
2022/03/12 01:20:51;;;;;;;24.87;11.73;;;;;;;-0.86;46.10;100669.58;1760346;81;20916;-63
2022/03/12 01:23:18;;;;;;;23.70;12.00;;;;;;;-0.84;45.94;100669.52;1733756;81;20865;-67
2022/03/12 01:25:47;;;;;;;28.32;13.22;;;;;;;-0.84;45.94;100669.52;1767500;81;21027;-66
2022/03/12 01:28:16;;;;;;;23.10;12.78;;;;;;;-0.85;46.24;100666.52;1766632;81;21876;-62
2022/03/12 01:30:43;;;;;;;27.30;13.58;;;;;;;-0.85;46.24;100666.52;1762913;80;20935;-66
2022/03/12 01:33:11;;;;;;;32.67;14.35;;;;;;;-0.89;46.13;100661.91;1760979;80;20995;-65
2022/03/12 01:35:38;;;;;;;28.52;13.55;;;;;;;-0.92;46.46;100669.02;1773129;80;21033;-63
2022/03/12 01:38:06;;;;;;;24.60;13.75;;;;;;;-0.94;46.37;100671.69;1765048;81;20931;-64
2022/03/12 01:40:33;;;;;;;24.00;12.90;;;;;;;-0.94;46.37;100671.69;1755217;81;21244;-64
2022/03/12 01:43:01;;;;;;;27.75;13.43;;;;;;;-0.97;46.54;100665.32;1743887;81;20921;-64
2022/03/12 01:45:28;;;;;;;31.23;14.03;;;;;;;-1.00;46.44;100669.38;1767912;80;20879;-64
2022/03/12 01:48:01;;;;;;;29.67;13.83;;;;;;;-1.01;46.54;100666.81;1760983;80;20963;-64
2022/03/12 01:50:34;;;;;;;23.18;11.88;;;;;;;-1.03;46.60;100660.36;1747703;81;21465;-63
2022/03/12 01:53:09;;;;;;;25.00;13.88;;;;;;;-1.00;46.27;100658.92;1757105;81;21158;-66
2022/03/12 01:55:40;;;;;;;27.07;12.88;;;;;;;-1.00;46.27;100658.92;1760829;81;21448;-62
2022/03/12 01:58:07;;;;;;;21.93;11.73;;;;;;;-0.99;46.41;100658.47;1758732;81;20884;-64
2022/03/12 02:00:49;;;;;;;20.48;12.35;;;;;;;-0.91;46.31;100656.33;1747032;81;20942;-66
2022/03/12 02:03:23;;;;;;;26.33;13.72;;;;;;;-0.83;46.03;100651.60;1739373;81;21422;-66
2022/03/12 02:05:50;;;;;;;29.55;13.58;;;;;;;-0.83;46.03;100651.60;1743192;80;21195;-66
2022/03/12 02:08:19;;;;;;;27.67;13.75;;;;;;;-0.81;46.04;100651.09;1741429;82;20822;-64
2022/03/12 02:10:50;;;;;;;29.10;15.68;;;;;;;-0.74;46.29;100645.97;1746192;80;21407;-64
2022/03/12 02:13:17;;;;;;;26.15;13.58;;;;;;;-0.74;46.29;100645.97;1743962;81;20870;-63
2022/03/12 02:15:46;;;;;;;26.80;14.60;;;;;;;-0.80;46.43;100643.17;1755527;80;21469;-66
2022/03/12 02:18:14;;;;;;;26.02;13.95;;;;;;;-0.77;46.37;100648.72;1773648;80;21877;-65
2022/03/12 02:20:43;;;;;;;24.67;13.22;;;;;;;-0.77;46.37;100648.72;1760150;80;20905;-63
2022/03/12 02:23:12;;;;;;;23.90;12.68;;;;;;;-0.79;46.41;100652.72;1744021;80;21034;-64
2022/03/12 02:25:40;;;;;;;18.37;11.33;;;;;;;-0.76;46.08;100651.73;1741980;81;20991;-65
2022/03/12 02:28:17;;;;;;;18.87;11.90;;;;;;;-0.74;45.86;100646.83;1756573;81;20919;-65
2022/03/12 02:30:55;;;;;;;17.73;10.98;;;;;;;-0.69;45.65;100651.38;1759433;80;21241;-62
2022/03/12 02:33:28;;;;;;;16.37;10.60;;;;;;;-0.65;45.52;100648.98;1743747;80;21088;-64
2022/03/12 02:35:54;;;;;;;18.17;11.28;;;;;;;-0.51;45.48;100650.97;1742307;82;21493;-66
2022/03/12 02:38:23;;;;;;;20.37;11.65;;;;;;;-0.51;45.48;100650.97;1752994;80;20911;-63
2022/03/12 02:40:51;;;;;;;19.00;11.10;;;;;;;-0.45;45.16;100649.83;1753269;80;20895;-66
2022/03/12 02:43:25;;;;;;;25.52;13.03;;;;;;;-0.41;45.06;100650.91;1743768;80;21249;-65
2022/03/12 02:45:51;;;;;;;18.92;12.98;;;;;;;-0.36;45.09;100647.61;1744306;80;20933;-61
2022/03/12 02:48:18;;;;;;;20.15;12.63;;;;;;;-0.33;45.07;100651.39;1755673;80;21439;-67
2022/03/12 02:50:48;;;;;;;23.15;13.22;;;;;;;-0.32;45.06;100643.09;1749027;80;20999;-65
2022/03/12 02:53:16;;;;;;;28.23;14.33;;;;;;;-0.27;45.13;100647.64;1762593;80;21566;-65
2022/03/12 02:55:45;;;;;;;32.33;15.83;;;;;;;-0.26;45.14;100643.63;1737875;81;21883;-64
2022/03/12 02:58:14;;;;;;;25.37;13.25;;;;;;;-0.24;45.31;100640.96;1744853;80;20990;-64
2022/03/12 03:00:42;;;;;;;24.45;13.83;;;;;;;-0.24;45.49;100643.58;1754867;80;21546;-64
2022/03/12 03:03:09;;;;;;;18.85;11.25;;;;;;;-0.24;45.40;100640.96;1756928;80;21048;-66
2022/03/12 03:05:47;;;;;;;20.23;12.45;;;;;;;-0.24;45.31;100643.13;1773590;80;20924;-64
2022/03/12 03:08:18;;;;;;;19.35;10.90;;;;;;;-0.20;45.07;100642.48;1764415;80;21361;-64
2022/03/12 03:10:49;;;;;;;18.12;11.75;;;;;;;-0.18;44.91;100636.72;1755840;80;20891;-63
2022/03/12 03:13:21;;;;;;;20.45;10.82;;;;;;;-0.14;44.83;100637.83;1750152;80;20935;-65
2022/03/12 03:15:54;;;;;;;21.42;13.28;;;;;;;-0.10;44.74;100634.13;1744227;80;20901;-64
2022/03/12 03:18:24;;;;;;;25.12;13.40;;;;;;;-0.07;44.88;100630.51;1744257;80;20880;-66
2022/03/12 03:20:54;;;;;;;30.88;15.13;;;;;;;-0.06;45.12;100628.28;1745448;80;20963;-65
2022/03/12 03:23:24;;;;;;;22.52;14.00;;;;;;;-0.04;45.36;100632.98;1741065;80;20971;-66
2022/03/12 03:25:51;;;;;;;25.70;13.90;;;;;;;-0.05;45.72;100625.58;1742906;80;21493;-64
2022/03/12 03:28:19;;;;;;;26.95;14.38;;;;;;;-0.07;46.08;100624.82;1748064;80;21426;-63
2022/03/12 03:30:46;;;;;;;25.23;14.25;;;;;;;-0.08;46.45;100626.22;1749115;80;20900;-67
2022/03/12 03:33:18;;;;;;;24.85;14.07;;;;;;;-0.12;46.40;100623.34;1743663;80;20932;-63
2022/03/12 03:35:45;;;;;;;23.07;13.60;;;;;;;-0.14;46.48;100618.66;1752960;80;20990;-64
2022/03/12 03:38:12;;;;;;;31.75;15.03;;;;;;;-0.16;46.50;100613.98;1771547;80;21620;-65
2022/03/12 03:40:40;;;;;;;23.57;13.75;;;;;;;-0.15;46.57;100622.19;1772616;80;21070;-64
2022/03/12 03:43:13;;;;;;;22.60;14.03;;;;;;;-0.17;46.77;100621.42;1756810;80;20913;-64
2022/03/12 03:45:40;;;;;;;21.02;12.70;;;;;;;-0.18;46.84;100623.64;1743343;80;21321;-63
2022/03/12 03:48:16;;;;;;;24.82;12.88;;;;;;;-0.17;46.88;100622.28;1756311;80;21774;-65
2022/03/12 03:50:44;;;;;;;22.70;12.40;;;;;;;-0.15;46.83;100619.11;1744091;80;20975;-66
2022/03/12 03:53:14;;;;;;;23.40;12.35;;;;;;;-0.14;46.72;100617.35;1759615;80;21117;-62
2022/03/12 03:55:42;;;;;;;20.70;12.25;;;;;;;-0.15;46.59;100611.27;1772869;80;20954;-65
2022/03/12 03:58:09;;;;;;;19.50;13.25;;;;;;;-0.10;46.32;100614.50;1771887;80;21122;-64
2022/03/12 04:00:36;;;;;;;17.50;13.03;;;;;;;-0.06;46.46;100621.30;1771180;80;21497;-64
2022/03/12 04:03:04;;;;;;;20.88;13.68;;;;;;;-0.03;46.71;100624.22;1736473;80;21009;-64
2022/03/12 04:05:36;;;;;;;23.57;13.95;;;;;;;0.00;46.77;100620.97;1745008;81;21057;-63
2022/03/12 04:08:07;;;;;;;22.50;13.83;;;;;;;0.04;46.79;100619.52;1733733;82;20902;-61
2022/03/12 04:10:35;;;;;;;21.27;13.40;;;;;;;0.03;46.52;100613.42;1734144;82;20917;-65
2022/03/12 04:13:07;;;;;;;17.92;12.90;;;;;;;0.06;46.52;100609.80;1734257;82;20961;-65
2022/03/12 04:15:37;;;;;;;22.02;13.45;;;;;;;0.08;46.57;100606.68;1727602;82;20977;-63
2022/03/12 04:18:08;;;;;;;16.15;12.28;;;;;;;0.09;46.61;100615.75;1734403;82;20957;-62
2022/03/12 04:20:35;;;;;;;20.82;13.45;;;;;;;0.10;46.68;100615.29;1734249;82;21482;-61
2022/03/12 04:23:01;;;;;;;14.80;11.40;;;;;;;0.12;46.62;100618.21;1734312;82;21448;-66
2022/03/12 04:25:31;;;;;;;15.45;10.95;;;;;;;0.16;46.59;100617.61;1734148;82;20941;-64
2022/03/12 04:27:59;;;;;;;14.78;8.95;;;;;;;0.17;46.27;100622.75;1735863;81;20925;-64
2022/03/12 04:30:28;;;;;;;14.07;8.70;;;;;;;0.19;45.97;100615.66;1762883;81;20911;-64
2022/03/12 04:32:57;;;;;;;16.30;9.13;;;;;;;0.25;45.64;100614.05;1762499;81;20884;-65
2022/03/12 04:35:25;;;;;;;18.65;10.28;;;;;;;0.31;45.19;100616.83;1744368;81;21271;-63
2022/03/12 04:37:52;;;;;;;18.87;11.10;;;;;;;0.36;45.21;100615.67;1734381;82;21032;-65
2022/03/12 04:40:25;;;;;;;20.02;11.35;;;;;;;0.42;45.20;100613.17;1734194;82;20861;-67
2022/03/12 04:42:52;;;;;;;23.55;13.13;;;;;;;0.45;45.24;100614.33;1734402;82;20921;-66
2022/03/12 04:45:25;;;;;;;24.63;13.08;;;;;;;0.48;45.52;100611.55;1734556;82;20933;-67
2022/03/12 04:47:53;;;;;;;16.87;11.33;;;;;;;0.50;45.67;100609.70;1734606;82;21266;-64
2022/03/12 04:50:21;;;;;;;17.23;11.45;;;;;;;0.50;45.80;100604.45;1734648;82;20897;-63
2022/03/12 04:52:54;;;;;;;17.48;10.68;;;;;;;0.49;45.82;100602.78;1734356;82;20901;-63
2022/03/12 04:55:22;;;;;;;19.85;10.53;;;;;;;0.50;45.68;100600.53;1746392;81;20909;-63
2022/03/12 04:57:50;;;;;;;25.85;15.40;;;;;;;0.50;45.54;100595.30;1734460;82;20989;-65
2022/03/12 05:00:28;;;;;;;23.50;12.10;;;;;;;0.53;45.50;100604.30;1734490;82;21241;-65
2022/03/12 05:03:02;;;;;;;17.05;10.82;;;;;;;0.55;45.63;100603.30;1737173;82;20925;-63
2022/03/12 05:05:30;;;;;;;17.30;9.65;;;;;;;0.59;45.65;100603.99;1733727;81;20913;-65
2022/03/12 05:07:59;;;;;;;16.42;8.85;;;;;;;0.63;45.65;100601.58;1738724;82;21436;-64
2022/03/12 05:10:29;;;;;;;17.52;8.60;;;;;;;0.67;45.59;100609.67;1739535;82;20910;-64
2022/03/12 05:13:00;;;;;;;17.45;9.03;;;;;;;0.73;45.54;100612.44;1738748;82;21266;-62
2022/03/12 05:15:38;;;;;;;14.80;8.20;;;;;;;0.79;45.63;100609.48;1737256;82;20925;-63
2022/03/12 05:18:06;;;;;;;16.07;8.18;;;;;;;0.84;45.63;100613.55;1738817;82;21095;-64
2022/03/12 05:20:35;;;;;;;17.17;10.38;;;;;;;0.93;45.55;100610.45;1737667;81;20976;-63
2022/03/12 05:23:02;;;;;;;18.67;10.60;;;;;;;1.00;45.54;100613.11;1739493;82;20865;-65
2022/03/12 05:25:32;;;;;;;19.90;9.53;;;;;;;1.07;45.61;100614.95;1738240;82;21211;-67
2022/03/12 05:27:59;;;;;;;19.65;10.65;;;;;;;1.15;45.58;100612.27;1738620;82;21415;-63
2022/03/12 05:30:27;;;;;;;17.62;9.73;;;;;;;1.22;45.53;100614.97;1735412;82;21840;-62
2022/03/12 05:32:55;;;;;;;17.70;10.08;;;;;;;1.31;45.51;100615.36;1731943;82;20972;-64
2022/03/12 05:35:22;;;;;;;16.65;10.03;;;;;;;1.40;45.38;100616.17;1709246;82;21414;-64
2022/03/12 05:37:53;;;;;;;17.20;9.80;;;;;;;1.45;45.26;100616.77;1722731;82;21873;-63
2022/03/12 05:40:21;;;;;;;16.48;9.90;;;;;;;1.55;45.08;100614.00;1725002;82;20873;-68
2022/03/12 05:42:49;;;;;;;16.05;9.70;;;;;;;1.64;45.02;100617.44;1738273;82;21487;-65
2022/03/12 05:45:19;;;;;;;13.25;7.87;;;;;;;1.74;45.06;100605.02;1739293;82;21005;-63
2022/03/12 05:47:47;;;;;;;10.60;7.78;;;;;;;1.86;44.95;100610.88;1736969;82;21497;-68
2022/03/12 05:50:14;;;;;;;10.50;7.28;;;;;;;2.03;44.63;100616.93;1739613;82;21892;-68
2022/03/12 05:52:47;;;;;;;12.68;7.58;;;;;;;2.25;44.30;100610.33;1737021;82;20952;-67
2022/03/12 05:55:15;;;;;;;13.25;7.58;;;;;;;2.58;44.05;100614.52;1737074;82;20993;-68
2022/03/12 05:57:42;;;;;;;8.83;6.55;;;;;;;3.03;43.39;100608.59;1726863;82;20992;-66
2022/03/12 06:00:15;;;;;;;11.18;7.33;;;;;;;3.54;42.64;100603.14;1730854;82;21458;-67
2022/03/12 06:02:51;;;;;;;12.33;7.58;;;;;;;4.08;41.57;100600.45;1747136;81;21152;-66
2022/03/12 06:05:24;;;;;;;10.28;8.08;;;;;;;4.62;40.54;100598.03;1733143;81;21474;-67
2022/03/12 06:07:52;;;;;;;14.18;9.25;;;;;;;5.18;39.66;100596.72;1760103;81;20946;-67
2022/03/12 06:10:28;;;;;;;10.20;8.33;;;;;;;5.74;38.61;100587.31;1732978;81;21083;-66
2022/03/12 06:12:58;;;;;;;13.22;9.43;;;;;;;6.29;37.39;100586.70;1758573;81;20907;-69
2022/03/12 06:15:26;;;;;;;10.60;8.40;;;;;;;6.83;36.36;100584.25;1758525;81;21532;-67
2022/03/12 06:17:55;;;;;;;11.57;8.60;;;;;;;7.34;35.46;100581.94;1758655;81;20932;-67
2022/03/12 06:20:23;;;;;;;12.93;8.40;;;;;;;7.87;34.59;100578.40;1759553;81;20957;-67
2022/03/12 06:22:53;;;;;;;10.68;7.75;;;;;;;8.41;34.00;100576.97;1758156;81;20955;-67
2022/03/12 06:25:22;;;;;;;12.15;8.18;;;;;;;8.89;33.26;100579.86;1759552;81;20956;-68
2022/03/12 06:27:55;;;;;;;12.20;7.72;;;;;;;9.17;32.62;100579.64;1760241;81;21190;-67
2022/03/12 06:30:27;;;;;;;11.03;8.03;;;;;;;9.29;32.08;100582.53;1734503;81;20987;-68
2022/03/12 06:32:55;;;;;;;15.65;8.95;;;;;;;9.38;31.66;100576.91;1757078;81;20991;-67
2022/03/12 06:35:23;;;;;;;14.45;8.28;;;;;;;9.51;31.34;100584.12;1759300;81;21609;-67
2022/03/12 06:37:50;;;;;;;11.55;9.03;;;;;;;9.60;31.02;100575.32;1760295;81;21419;-66
2022/03/12 06:40:18;;;;;;;11.12;8.10;;;;;;;9.67;30.78;100570.64;1743814;81;21856;-66
2022/03/12 06:42:48;;;;;;;12.10;7.65;;;;;;;9.75;30.51;100569.47;1760166;81;21047;-66
2022/03/12 06:45:16;;;;;;;12.95;8.38;;;;;;;9.88;29.89;100574.02;1759875;81;21000;-67
2022/03/12 06:47:44;;;;;;;9.75;7.62;;;;;;;9.94;29.63;100567.31;1760002;81;21058;-67
2022/03/12 06:50:15;;;;;;;9.50;7.10;;;;;;;10.12;29.17;100572.30;1759789;81;21015;-69
2022/03/12 06:52:45;;;;;;;11.28;7.60;;;;;;;10.29;28.73;100569.42;1760705;81;21894;-67
2022/03/12 06:55:11;;;;;;;9.20;6.80;;;;;;;10.53;28.49;100567.97;1759492;81;20982;-67
2022/03/12 06:57:38;;;;;;;9.83;6.83;;;;;;;10.94;28.15;100565.40;1760486;81;20845;-66
2022/03/12 07:00:09;;;;;;;8.85;6.90;;;;;;;11.38;27.20;100560.27;1759031;81;20924;-68
2022/03/12 07:02:37;;;;;;;8.10;6.10;;;;;;;11.80;26.81;100556.09;1753107;81;20891;-69
2022/03/12 07:05:05;;;;;;;6.30;5.65;;;;;;;12.25;26.46;100564.80;1716111;82;21244;-67
2022/03/12 07:07:32;;;;;;;11.18;5.30;;;;;;;12.57;25.78;100565.53;1717543;83;20974;-67
2022/03/12 07:10:01;;;;;;;7.35;5.03;;;;;;;12.72;25.68;100564.48;1721224;83;20883;-68
2022/03/12 07:12:29;;;;;;;8.33;4.17;;;;;;;12.88;25.17;100565.87;1712756;83;21464;-66
2022/03/12 07:14:56;;;;;;;5.50;4.83;;;;;;;12.89;24.75;100570.23;1725874;83;20995;-66
2022/03/12 07:17:24;;;;;;;5.35;4.15;;;;;;;12.93;24.45;100566.27;1727773;83;21364;-66
2022/03/12 07:19:51;;;;;;;5.35;4.00;;;;;;;13.07;24.05;100560.84;1721797;82;21388;-65
2022/03/12 07:22:20;;;;;;;6.05;3.75;;;;;;;13.08;24.01;100562.03;1727023;82;20889;-67
2022/03/12 07:24:47;;;;;;;5.47;3.47;;;;;;;13.39;23.78;100555.63;1713596;82;21475;-66
2022/03/12 07:27:14;;;;;;;5.03;3.27;;;;;;;13.61;23.21;100549.16;1712805;83;21001;-66
2022/03/12 07:29:41;;;;;;;4.80;3.67;;;;;;;13.78;22.39;100552.72;1712267;83;21225;-67
2022/03/12 07:32:11;;;;;;;10.80;3.72;;;;;;;13.84;22.26;100551.22;1713956;82;21038;-65
2022/03/12 07:34:38;;;;;;;6.33;3.25;;;;;;;14.03;22.13;100550.39;1718300;83;20911;-66
2022/03/12 07:37:08;;;;;;;3.45;2.67;;;;;;;14.27;21.84;100548.21;1720953;82;20930;-66
2022/03/12 07:39:34;;;;;;;4.87;2.90;;;;;;;14.55;21.43;100543.35;1713893;82;21026;-66
2022/03/12 07:42:03;;;;;;;6.42;2.72;;;;;;;14.70;20.93;100538.99;1738695;82;21329;-67
2022/03/12 07:44:31;;;;;;;5.30;2.95;;;;;;;14.78;20.68;100541.13;1742693;82;21401;-68
2022/03/12 07:46:59;;;;;;;4.78;3.60;;;;;;;14.86;20.50;100526.87;1742113;82;20872;-66
2022/03/12 07:49:26;;;;;;;6.08;2.83;;;;;;;14.91;20.24;100527.71;1724118;82;20945;-64
2022/03/12 07:51:53;;;;;;;4.05;2.90;;;;;;;15.02;20.12;100521.95;1725498;82;20947;-67
2022/03/12 07:54:20;;;;;;;4.20;3.17;;;;;;;15.11;19.94;100521.77;1736257;82;21879;-65
2022/03/12 07:56:47;;;;;;;4.28;2.37;;;;;;;15.23;19.56;100517.67;1723722;82;20869;-66
2022/03/12 07:59:14;;;;;;;2.35;2.00;;;;;;;15.23;19.23;100513.66;1742307;82;21407;-67
2022/03/12 08:01:41;;;;;;;4.12;2.40;;;;;;;15.14;19.01;100509.86;1720556;82;21547;-67
2022/03/12 08:04:08;;;;;;;6.80;2.40;;;;;;;14.97;18.84;100511.77;1720623;81;20902;-67
2022/03/12 08:06:36;;;;;;;2.95;2.25;;;;;;;14.79;18.80;100515.18;1734822;80;21310;-66
2022/03/12 08:09:03;;;;;;;2.90;2.27;;;;;;;14.64;18.90;100512.88;1739922;81;20936;-66
2022/03/12 08:11:34;;;;;;;5.60;2.35;;;;;;;14.49;18.76;100507.41;1729506;81;21424;-66
2022/03/12 08:14:14;;;;;;;4.90;2.47;;;;;;;14.28;18.72;100509.75;1756789;80;21026;-64
2022/03/12 08:16:37;;;;;;;7.50;3.00;;;;;;;14.11;18.80;100513.43;1741230;80;21493;-66
2022/03/12 08:19:06;;;;;;;5.72;2.80;;;;;;;13.85;18.85;100511.42;1737890;81;21865;-66
2022/03/12 08:21:34;;;;;;;4.65;2.92;;;;;;;13.60;19.10;100514.58;1720392;82;21015;-67
2022/03/12 08:24:02;;;;;;;12.93;3.90;;;;;;;13.49;19.15;100518.41;1741949;80;20944;-68
2022/03/12 08:26:30;;;;;;;4.58;3.02;;;;;;;13.50;19.15;100512.04;1742267;80;21025;-66
2022/03/12 08:28:57;;;;;;;3.75;2.90;;;;;;;13.48;19.14;100518.55;1739786;82;20920;-69
2022/03/12 08:31:25;;;;;;;7.30;3.05;;;;;;;13.56;19.19;100513.22;1763039;80;21232;-69
2022/03/12 08:33:52;;;;;;;6.70;2.72;;;;;;;13.78;19.01;100510.42;1760619;80;20893;-67
2022/03/12 08:36:19;;;;;;;6.83;2.65;;;;;;;13.92;18.79;100507.09;1756352;80;20897;-66
2022/03/12 08:38:48;;;;;;;5.28;2.67;;;;;;;14.09;18.60;100502.06;1742583;80;20919;-68
2022/03/12 08:41:16;;;;;;;5.28;2.98;;;;;;;14.33;18.48;100495.88;1735741;80;20951;-70
2022/03/12 08:43:44;;;;;;;3.98;2.85;;;;;;;14.55;18.47;100499.17;1742174;80;21254;-67
2022/03/12 08:46:12;;;;;;;16.17;4.08;;;;;;;14.81;18.34;100490.38;1743755;82;20948;-67
2022/03/12 08:48:40;;;;;;;7.33;2.85;;;;;;;15.07;18.26;100491.48;1754023;80;21445;-69
2022/03/12 08:51:07;;;;;;;17.15;3.12;;;;;;;15.23;17.80;100490.88;1772809;80;20971;-69
2022/03/12 08:53:34;;;;;;;7.30;2.85;;;;;;;15.18;17.87;100487.88;1773487;80;20939;-66
2022/03/12 08:56:03;;;;;;;5.40;2.90;;;;;;;15.28;18.11;100478.27;1772766;80;22157;-69
2022/03/12 08:58:31;;;;;;;6.80;3.37;;;;;;;15.42;18.19;100478.38;1773358;80;20848;-66
2022/03/12 09:01:01;;;;;;;13.70;3.67;;;;;;;15.56;17.83;100478.15;1771495;80;20852;-66
2022/03/12 09:03:30;;;;;;;7.72;2.83;;;;;;;15.49;17.91;100474.48;1748993;80;21025;-66
2022/03/12 09:05:57;;;;;;;5.42;2.40;;;;;;;15.43;17.90;100468.48;1734425;82;20987;-67
2022/03/12 09:08:24;;;;;;;3.58;2.45;;;;;;;15.41;17.87;100472.66;1691021;83;21230;-66
2022/03/12 09:10:55;;;;;;;4.60;2.87;;;;;;;15.34;17.80;100468.19;1744652;80;20877;-67
2022/03/12 09:13:22;;;;;;;2.20;2.00;;;;;;;15.27;17.74;100467.23;1749936;80;20938;-67
2022/03/12 09:15:51;;;;;;;3.50;2.50;;;;;;;15.14;17.65;100476.36;1746774;80;21018;-66
2022/03/12 09:18:20;;;;;;;2.95;1.90;;;;;;;14.97;17.60;100471.58;1745042;80;21403;-70
2022/03/12 09:20:48;;;;;;;2.58;2.05;;;;;;;14.81;17.58;100475.16;1755878;80;21930;-66
2022/03/12 09:23:17;;;;;;;3.22;2.17;;;;;;;14.70;17.49;100466.16;1742452;80;21497;-67
2022/03/12 09:25:47;;;;;;;3.20;1.65;;;;;;;14.51;17.17;100464.39;1757766;80;20986;-66
2022/03/12 09:28:15;;;;;;;12.13;2.70;;;;;;;14.22;17.23;100466.26;1751935;80;20995;-65
2022/03/12 09:30:42;;;;;;;2.58;1.70;;;;;;;14.09;17.39;100469.95;1761233;80;21054;-65
2022/03/12 09:33:09;;;;;;;5.92;1.80;;;;;;;14.08;17.47;100464.27;1764671;80;21045;-66
2022/03/12 09:35:38;;;;;;;3.33;1.82;;;;;;;14.21;17.27;100467.25;1754443;80;20948;-63
2022/03/12 09:38:05;;;;;;;2.87;1.60;;;;;;;14.30;17.30;100462.23;1749628;80;20935;-68
2022/03/12 09:40:32;;;;;;;4.87;2.00;;;;;;;14.52;17.18;100456.17;1765444;80;20902;-65
2022/03/12 09:43:00;;;;;;;3.42;1.92;;;;;;;14.67;16.63;100454.97;1758576;80;20919;-63
2022/03/12 09:45:27;;;;;;;2.00;1.62;;;;;;;14.69;16.68;100445.75;1760215;80;21305;-65
2022/03/12 09:47:55;;;;;;;2.95;1.80;;;;;;;14.79;16.87;100444.20;1745326;80;20970;-65
2022/03/12 09:50:22;;;;;;;3.10;1.40;;;;;;;14.98;16.80;100448.30;1750975;80;20999;-66
2022/03/12 09:52:49;;;;;;;3.00;1.50;;;;;;;15.08;16.71;100447.08;1764875;80;20868;-66
2022/03/12 09:55:19;;;;;;;2.65;1.80;;;;;;;15.11;16.50;100440.03;1760489;80;20907;-67
2022/03/12 09:57:48;;;;;;;2.58;2.15;;;;;;;15.15;16.51;100436.47;1748669;80;21234;-65
2022/03/12 10:00:16;;;;;;;3.30;1.90;;;;;;;15.25;16.63;100431.21;1755011;80;21545;-66
2022/03/12 10:02:43;;;;;;;4.22;3.12;;;;;;;15.34;16.70;100438.70;1752779;80;20966;-67
2022/03/12 10:05:12;;;;;;;4.28;3.42;;;;;;;15.38;16.68;100430.65;1752640;80;20912;-67
2022/03/12 10:07:41;;;;;;;3.80;2.17;;;;;;;15.47;16.67;100431.44;1744016;80;20927;-68
2022/03/12 10:10:15;;;;;;;3.35;2.75;;;;;;;15.41;16.75;100430.27;1759716;80;21222;-68
2022/03/12 10:12:44;;;;;;;2.47;1.85;;;;;;;15.36;16.62;100419.24;1761646;80;21031;-65
2022/03/12 10:15:13;;;;;;;13.03;11.73;;;;;;;15.09;16.58;100424.63;1757363;80;21520;-64
2022/03/12 10:17:40;;;;;;;16.20;14.15;;;;;;;14.81;16.95;100424.76;1743928;80;20903;-67
2022/03/12 10:20:11;;;;;;;5.78;5.15;;;;;;;14.59;17.29;100426.87;1756845;80;20855;-65
2022/03/12 10:22:39;;;;;;;9.45;3.10;;;;;;;14.55;17.50;100426.87;1743524;80;21871;-66
2022/03/12 10:25:08;;;;;;;4.20;2.30;;;;;;;14.54;17.63;100423.89;1747959;80;20927;-65
2022/03/12 10:27:35;;;;;;;5.42;2.27;;;;;;;14.53;17.73;100420.86;1742903;80;20983;-66
2022/03/12 10:30:02;;;;;;;5.92;2.00;;;;;;;14.59;17.60;100416.17;1721901;81;20908;-66
2022/03/12 10:32:34;;;;;;;4.05;2.20;;;;;;;14.57;17.63;100404.27;1749783;81;20959;-66
2022/03/12 10:35:02;;;;;;;2.75;2.05;;;;;;;14.59;17.63;100404.95;1741782;82;21234;-67
2022/03/12 10:37:31;;;;;;;20.65;3.45;;;;;;;14.65;17.53;100395.40;1734027;81;21502;-68
2022/03/12 10:40:11;;;;;;;2.70;1.72;;;;;;;14.62;17.51;100391.72;1729903;81;20912;-67
2022/03/12 10:42:56;;;;;;;4.87;2.20;;;;;;;14.57;17.52;100386.06;1739431;81;20948;-66
2022/03/12 10:45:29;;;;;;;2.47;1.70;;;;;;;14.50;17.57;100393.94;1741113;81;20948;-64
2022/03/12 10:47:59;;;;;;;5.85;2.15;;;;;;;14.42;17.45;100388.61;1750507;80;21234;-69
2022/03/12 10:50:35;;;;;;;2.90;1.60;;;;;;;14.28;17.47;100387.13;1773566;80;20888;-67
2022/03/12 10:53:05;;;;;;;1.85;1.55;;;;;;;14.15;17.39;100378.31;1772658;80;20931;-66
2022/03/12 10:55:41;;;;;;;2.62;1.67;;;;;;;13.81;17.29;100378.55;1759931;80;21447;-66
2022/03/12 10:58:26;;;;;;;2.67;1.52;;;;;;;13.57;17.29;100371.38;1743897;80;20927;-66
2022/03/12 11:00:57;;;;;;;2.25;1.60;;;;;;;13.35;17.40;100368.03;1754990;80;21931;-68
2022/03/12 11:03:28;;;;;;;2.65;1.85;;;;;;;13.24;17.46;100367.54;1760172;80;20971;-67
2022/03/12 11:05:56;;;;;;;3.95;1.95;;;;;;;13.14;17.52;100348.16;1748014;81;21000;-65
2022/03/12 11:08:29;;;;;;;2.40;1.95;;;;;;;13.15;17.74;100349.32;1735590;81;21545;-64
2022/03/12 11:11:11;;;;;;;1.82;1.67;;;;;;;13.25;17.70;100342.47;1738658;81;20984;-66
2022/03/12 11:13:50;;;;;;;1.45;1.35;;;;;;;13.30;17.60;100339.64;1743779;81;21120;-66
2022/03/12 11:16:30;;;;;;;2.30;1.57;;;;;;;13.24;17.33;100339.48;1732356;81;20953;-66
2022/03/12 11:19:12;;;;;;;2.45;1.40;;;;;;;13.03;17.33;100330.59;1756912;81;20924;-68
2022/03/12 11:21:53;;;;;;;4.03;2.12;;;;;;;12.84;17.59;100328.21;1700717;83;21074;-65
2022/03/12 11:24:30;;;;;;;2.08;1.47;;;;;;;12.82;17.94;100323.55;1727287;81;20912;-64
2022/03/12 11:27:01;;;;;;;8.38;2.50;;;;;;;12.91;17.97;100321.20;1729822;81;21038;-66
2022/03/12 11:29:30;;;;;;;3.12;1.77;;;;;;;12.90;17.98;100320.89;1738500;81;20947;-67